sensor_id;sensor_type;location;lat;lon;timestamp;temperature;humidity
29813;DHT22;16707;48.106;11.548;2022-12-24T00:02:02;10.60;99.90
29813;DHT22;16707;48.106;11.548;2022-12-24T00:04:33;10.70;99.90
29813;DHT22;16707;48.106;11.548;2022-12-24T00:07:03;10.80;99.90
29813;DHT22;16707;48.106;11.548;2022-12-24T00:09:30;10.70;99.90
29813;DHT22;16707;48.106;11.548;2022-12-24T00:12:03;10.80;99.90
29813;DHT22;16707;48.106;11.548;2022-12-24T00:14:31;10.80;99.90
29813;DHT22;16707;48.106;11.548;2022-12-24T00:16:58;10.80;99.90
29813;DHT22;16707;48.106;11.548;2022-12-24T00:19:31;10.90;99.90
29813;DHT22;16707;48.106;11.548;2022-12-24T00:21:57;10.90;99.90
29813;DHT22;16707;48.106;11.548;2022-12-24T00:24:25;10.90;99.90
29813;DHT22;16707;48.106;11.548;2022-12-24T00:26:52;11.00;99.90
29813;DHT22;16707;48.106;11.548;2022-12-24T00:29:24;11.00;99.90
29813;DHT22;16707;48.106;11.548;2022-12-24T00:31:55;10.90;99.90
29813;DHT22;16707;48.106;11.548;2022-12-24T00:34:22;10.90;99.90
29813;DHT22;16707;48.106;11.548;2022-12-24T00:36:55;10.90;99.90
29813;DHT22;16707;48.106;11.548;2022-12-24T00:39:22;11.00;99.90
29813;DHT22;16707;48.106;11.548;2022-12-24T00:41:49;10.90;99.90
29813;DHT22;16707;48.106;11.548;2022-12-24T00:44:18;11.00;99.90
29813;DHT22;16707;48.106;11.548;2022-12-24T00:46:46;11.00;99.90
29813;DHT22;16707;48.106;11.548;2022-12-24T00:49:14;11.00;99.90
29813;DHT22;16707;48.106;11.548;2022-12-24T00:51:41;10.90;99.90
29813;DHT22;16707;48.106;11.548;2022-12-24T00:54:08;10.90;99.90
29813;DHT22;16707;48.106;11.548;2022-12-24T00:56:36;10.90;99.90
29813;DHT22;16707;48.106;11.548;2022-12-24T00:59:05;11.00;99.90
29813;DHT22;16707;48.106;11.548;2022-12-24T01:01:35;10.90;99.90
29813;DHT22;16707;48.106;11.548;2022-12-24T01:04:10;11.00;99.90
29813;DHT22;16707;48.106;11.548;2022-12-24T01:06:54;11.10;99.90
29813;DHT22;16707;48.106;11.548;2022-12-24T01:09:24;11.10;99.90
29813;DHT22;16707;48.106;11.548;2022-12-24T01:11:51;11.10;99.90
29813;DHT22;16707;48.106;11.548;2022-12-24T01:14:18;11.10;99.90
29813;DHT22;16707;48.106;11.548;2022-12-24T01:16:55;11.10;99.90
29813;DHT22;16707;48.106;11.548;2022-12-24T01:19:26;11.10;99.90
29813;DHT22;16707;48.106;11.548;2022-12-24T01:21:53;11.00;99.90
29813;DHT22;16707;48.106;11.548;2022-12-24T01:24:23;10.80;99.90
29813;DHT22;16707;48.106;11.548;2022-12-24T01:26:50;10.70;99.90
29813;DHT22;16707;48.106;11.548;2022-12-24T01:29:17;10.50;99.90
29813;DHT22;16707;48.106;11.548;2022-12-24T01:31:50;10.30;99.90
29813;DHT22;16707;48.106;11.548;2022-12-24T01:34:24;10.40;99.90
29813;DHT22;16707;48.106;11.548;2022-12-24T01:36:52;10.40;99.90
29813;DHT22;16707;48.106;11.548;2022-12-24T01:39:19;10.50;99.90
29813;DHT22;16707;48.106;11.548;2022-12-24T01:41:49;10.40;99.90
29813;DHT22;16707;48.106;11.548;2022-12-24T01:44:35;10.40;99.90
29813;DHT22;16707;48.106;11.548;2022-12-24T01:47:08;10.40;99.90
29813;DHT22;16707;48.106;11.548;2022-12-24T01:49:39;10.40;99.90
29813;DHT22;16707;48.106;11.548;2022-12-24T01:52:12;10.40;99.90
29813;DHT22;16707;48.106;11.548;2022-12-24T01:54:56;10.30;99.90
29813;DHT22;16707;48.106;11.548;2022-12-24T01:57:34;10.40;99.90
29813;DHT22;16707;48.106;11.548;2022-12-24T02:00:05;10.40;99.90
29813;DHT22;16707;48.106;11.548;2022-12-24T02:02:33;10.50;99.90
29813;DHT22;16707;48.106;11.548;2022-12-24T02:05:06;10.50;99.90
29813;DHT22;16707;48.106;11.548;2022-12-24T02:07:37;10.50;99.90
29813;DHT22;16707;48.106;11.548;2022-12-24T02:10:11;10.60;99.90
29813;DHT22;16707;48.106;11.548;2022-12-24T02:12:43;10.50;99.90
29813;DHT22;16707;48.106;11.548;2022-12-24T02:15:20;10.60;99.90
29813;DHT22;16707;48.106;11.548;2022-12-24T02:17:54;10.60;99.90
29813;DHT22;16707;48.106;11.548;2022-12-24T02:23:39;10.40;99.90
29813;DHT22;16707;48.106;11.548;2022-12-24T02:26:29;10.40;99.90
29813;DHT22;16707;48.106;11.548;2022-12-24T02:29:18;10.40;99.90
29813;DHT22;16707;48.106;11.548;2022-12-24T02:31:52;10.50;99.90
29813;DHT22;16707;48.106;11.548;2022-12-24T02:34:28;10.60;99.90
29813;DHT22;16707;48.106;11.548;2022-12-24T02:37:04;10.60;99.90
29813;DHT22;16707;48.106;11.548;2022-12-24T02:39:37;10.60;99.90
29813;DHT22;16707;48.106;11.548;2022-12-24T02:42:11;10.50;99.90
29813;DHT22;16707;48.106;11.548;2022-12-24T02:44:46;10.50;99.90
29813;DHT22;16707;48.106;11.548;2022-12-24T02:47:17;10.50;99.90
29813;DHT22;16707;48.106;11.548;2022-12-24T02:49:53;10.40;99.90
29813;DHT22;16707;48.106;11.548;2022-12-24T02:52:30;10.40;99.90
29813;DHT22;16707;48.106;11.548;2022-12-24T02:55:01;10.40;99.90
29813;DHT22;16707;48.106;11.548;2022-12-24T02:57:40;10.40;99.90
29813;DHT22;16707;48.106;11.548;2022-12-24T03:00:12;10.50;99.90
29813;DHT22;16707;48.106;11.548;2022-12-24T03:03:05;10.40;99.90
29813;DHT22;16707;48.106;11.548;2022-12-24T03:05:39;10.50;99.90
29813;DHT22;16707;48.106;11.548;2022-12-24T03:08:20;10.50;99.90
29813;DHT22;16707;48.106;11.548;2022-12-24T03:10:54;10.50;99.90
29813;DHT22;16707;48.106;11.548;2022-12-24T03:13:23;10.50;99.90
29813;DHT22;16707;48.106;11.548;2022-12-24T03:15:51;10.60;99.90
29813;DHT22;16707;48.106;11.548;2022-12-24T03:18:21;10.50;99.90
29813;DHT22;16707;48.106;11.548;2022-12-24T03:20:56;10.50;99.90
29813;DHT22;16707;48.106;11.548;2022-12-24T03:23:24;10.50;99.90
29813;DHT22;16707;48.106;11.548;2022-12-24T03:25:59;10.50;99.90
29813;DHT22;16707;48.106;11.548;2022-12-24T03:28:27;10.50;99.90
29813;DHT22;16707;48.106;11.548;2022-12-24T03:30:54;10.40;99.90
29813;DHT22;16707;48.106;11.548;2022-12-24T03:33:23;10.50;99.90
29813;DHT22;16707;48.106;11.548;2022-12-24T03:35:50;10.50;99.90
29813;DHT22;16707;48.106;11.548;2022-12-24T03:38:16;10.40;99.90
29813;DHT22;16707;48.106;11.548;2022-12-24T03:40:44;10.50;99.90
29813;DHT22;16707;48.106;11.548;2022-12-24T03:43:11;10.40;99.90
29813;DHT22;16707;48.106;11.548;2022-12-24T03:45:38;10.40;99.90
29813;DHT22;16707;48.106;11.548;2022-12-24T03:48:08;10.40;99.90
29813;DHT22;16707;48.106;11.548;2022-12-24T03:50:37;10.40;99.90
29813;DHT22;16707;48.106;11.548;2022-12-24T03:53:07;10.30;99.90
29813;DHT22;16707;48.106;11.548;2022-12-24T03:55:34;10.30;99.90
29813;DHT22;16707;48.106;11.548;2022-12-24T03:58:01;10.30;99.90
29813;DHT22;16707;48.106;11.548;2022-12-24T04:00:28;10.30;99.90
29813;DHT22;16707;48.106;11.548;2022-12-24T04:02:55;10.40;99.90
29813;DHT22;16707;48.106;11.548;2022-12-24T04:05:22;10.30;99.90
29813;DHT22;16707;48.106;11.548;2022-12-24T04:07:50;10.40;99.90
29813;DHT22;16707;48.106;11.548;2022-12-24T04:10:23;10.40;99.90
29813;DHT22;16707;48.106;11.548;2022-12-24T04:12:54;10.30;99.90
29813;DHT22;16707;48.106;11.548;2022-12-24T04:15:24;10.20;99.90
29813;DHT22;16707;48.106;11.548;2022-12-24T04:17:51;10.30;99.90
29813;DHT22;16707;48.106;11.548;2022-12-24T04:20:18;10.40;99.90
29813;DHT22;16707;48.106;11.548;2022-12-24T04:22:45;10.50;99.90
29813;DHT22;16707;48.106;11.548;2022-12-24T04:25:13;10.40;99.90
29813;DHT22;16707;48.106;11.548;2022-12-24T04:27:41;10.40;99.90
29813;DHT22;16707;48.106;11.548;2022-12-24T04:30:11;10.30;99.90
29813;DHT22;16707;48.106;11.548;2022-12-24T04:32:50;10.40;99.90
29813;DHT22;16707;48.106;11.548;2022-12-24T04:35:17;10.40;99.90
29813;DHT22;16707;48.106;11.548;2022-12-24T04:37:47;10.30;99.90
29813;DHT22;16707;48.106;11.548;2022-12-24T04:40:16;10.40;99.90
29813;DHT22;16707;48.106;11.548;2022-12-24T04:42:43;10.40;99.90
29813;DHT22;16707;48.106;11.548;2022-12-24T04:45:13;10.50;99.90
29813;DHT22;16707;48.106;11.548;2022-12-24T04:47:43;10.50;99.90
29813;DHT22;16707;48.106;11.548;2022-12-24T04:50:10;10.40;99.90
29813;DHT22;16707;48.106;11.548;2022-12-24T04:52:38;10.40;99.90
29813;DHT22;16707;48.106;11.548;2022-12-24T04:55:06;10.30;99.90
29813;DHT22;16707;48.106;11.548;2022-12-24T04:57:38;10.40;99.90
29813;DHT22;16707;48.106;11.548;2022-12-24T05:00:06;10.40;99.90
29813;DHT22;16707;48.106;11.548;2022-12-24T05:02:35;10.30;99.90
29813;DHT22;16707;48.106;11.548;2022-12-24T05:05:02;10.30;99.90
29813;DHT22;16707;48.106;11.548;2022-12-24T05:07:29;10.30;99.90
29813;DHT22;16707;48.106;11.548;2022-12-24T05:09:56;10.40;99.90
29813;DHT22;16707;48.106;11.548;2022-12-24T05:12:28;10.40;99.90
29813;DHT22;16707;48.106;11.548;2022-12-24T05:15:02;10.50;99.90
29813;DHT22;16707;48.106;11.548;2022-12-24T05:17:33;10.40;99.90
29813;DHT22;16707;48.106;11.548;2022-12-24T05:19:59;10.40;99.90
29813;DHT22;16707;48.106;11.548;2022-12-24T05:22:29;10.50;99.90
29813;DHT22;16707;48.106;11.548;2022-12-24T05:25:14;10.50;99.90
29813;DHT22;16707;48.106;11.548;2022-12-24T05:27:58;10.50;99.90
29813;DHT22;16707;48.106;11.548;2022-12-24T05:30:27;10.50;99.90
29813;DHT22;16707;48.106;11.548;2022-12-24T05:32:54;10.50;99.90
29813;DHT22;16707;48.106;11.548;2022-12-24T05:35:27;10.50;99.90
29813;DHT22;16707;48.106;11.548;2022-12-24T05:37:56;10.40;99.90
29813;DHT22;16707;48.106;11.548;2022-12-24T05:40:24;10.40;99.90
29813;DHT22;16707;48.106;11.548;2022-12-24T05:42:51;10.40;99.90
29813;DHT22;16707;48.106;11.548;2022-12-24T05:45:18;10.30;99.90
29813;DHT22;16707;48.106;11.548;2022-12-24T05:47:49;10.40;99.90
29813;DHT22;16707;48.106;11.548;2022-12-24T05:50:19;10.30;99.90
29813;DHT22;16707;48.106;11.548;2022-12-24T05:52:49;10.40;99.90
29813;DHT22;16707;48.106;11.548;2022-12-24T05:55:16;10.40;99.90
29813;DHT22;16707;48.106;11.548;2022-12-24T05:57:49;10.40;99.90
29813;DHT22;16707;48.106;11.548;2022-12-24T06:00:17;10.40;99.90
29813;DHT22;16707;48.106;11.548;2022-12-24T06:02:44;10.40;99.90
29813;DHT22;16707;48.106;11.548;2022-12-24T06:05:12;10.40;99.90
29813;DHT22;16707;48.106;11.548;2022-12-24T06:07:40;10.50;99.90
29813;DHT22;16707;48.106;11.548;2022-12-24T06:10:10;10.50;99.90
29813;DHT22;16707;48.106;11.548;2022-12-24T06:12:39;10.50;99.90
29813;DHT22;16707;48.106;11.548;2022-12-24T06:15:07;10.50;99.90
29813;DHT22;16707;48.106;11.548;2022-12-24T06:17:35;10.50;99.90
29813;DHT22;16707;48.106;11.548;2022-12-24T06:20:14;10.40;99.90
29813;DHT22;16707;48.106;11.548;2022-12-24T06:22:45;10.30;99.90
29813;DHT22;16707;48.106;11.548;2022-12-24T06:25:14;10.40;99.90
29813;DHT22;16707;48.106;11.548;2022-12-24T06:27:42;10.30;99.90
29813;DHT22;16707;48.106;11.548;2022-12-24T06:30:12;10.20;99.90
29813;DHT22;16707;48.106;11.548;2022-12-24T06:32:42;10.20;99.90
29813;DHT22;16707;48.106;11.548;2022-12-24T06:35:09;10.20;99.90
29813;DHT22;16707;48.106;11.548;2022-12-24T06:37:41;10.20;99.90
29813;DHT22;16707;48.106;11.548;2022-12-24T06:40:14;10.10;99.90
29813;DHT22;16707;48.106;11.548;2022-12-24T06:42:42;10.10;99.90
29813;DHT22;16707;48.106;11.548;2022-12-24T06:45:12;10.10;99.90
29813;DHT22;16707;48.106;11.548;2022-12-24T06:47:46;10.10;99.90
29813;DHT22;16707;48.106;11.548;2022-12-24T06:50:22;10.10;99.90
29813;DHT22;16707;48.106;11.548;2022-12-24T06:52:57;10.10;99.90
29813;DHT22;16707;48.106;11.548;2022-12-24T06:55:27;10.10;99.90
29813;DHT22;16707;48.106;11.548;2022-12-24T06:57:54;10.00;99.90
29813;DHT22;16707;48.106;11.548;2022-12-24T07:00:27;10.00;99.90
29813;DHT22;16707;48.106;11.548;2022-12-24T07:02:59;10.00;99.90
29813;DHT22;16707;48.106;11.548;2022-12-24T07:05:29;9.90;99.90
29813;DHT22;16707;48.106;11.548;2022-12-24T07:08:00;10.00;99.90
29813;DHT22;16707;48.106;11.548;2022-12-24T07:10:27;10.00;99.90
29813;DHT22;16707;48.106;11.548;2022-12-24T07:12:54;9.90;99.90
29813;DHT22;16707;48.106;11.548;2022-12-24T07:15:21;9.90;99.90
29813;DHT22;16707;48.106;11.548;2022-12-24T07:17:48;9.90;99.90
29813;DHT22;16707;48.106;11.548;2022-12-24T07:20:20;9.80;99.90
29813;DHT22;16707;48.106;11.548;2022-12-24T07:22:48;9.80;99.90
29813;DHT22;16707;48.106;11.548;2022-12-24T07:25:19;9.80;99.90
29813;DHT22;16707;48.106;11.548;2022-12-24T07:27:46;9.70;99.90
29813;DHT22;16707;48.106;11.548;2022-12-24T07:30:16;9.70;99.90
29813;DHT22;16707;48.106;11.548;2022-12-24T07:32:46;9.60;99.90
29813;DHT22;16707;48.106;11.548;2022-12-24T07:35:13;9.70;99.90
29813;DHT22;16707;48.106;11.548;2022-12-24T07:37:43;9.70;99.90
29813;DHT22;16707;48.106;11.548;2022-12-24T07:40:18;9.80;99.90
29813;DHT22;16707;48.106;11.548;2022-12-24T07:42:47;9.80;99.90
29813;DHT22;16707;48.106;11.548;2022-12-24T07:45:17;9.80;99.90
29813;DHT22;16707;48.106;11.548;2022-12-24T07:47:43;9.70;99.90
29813;DHT22;16707;48.106;11.548;2022-12-24T07:50:11;9.70;99.90
29813;DHT22;16707;48.106;11.548;2022-12-24T07:52:38;9.80;99.90
29813;DHT22;16707;48.106;11.548;2022-12-24T07:55:05;9.80;99.90
29813;DHT22;16707;48.106;11.548;2022-12-24T07:57:32;9.80;99.90
29813;DHT22;16707;48.106;11.548;2022-12-24T08:00:01;9.80;99.90
29813;DHT22;16707;48.106;11.548;2022-12-24T08:02:27;9.80;99.90
29813;DHT22;16707;48.106;11.548;2022-12-24T08:04:57;9.80;99.90
29813;DHT22;16707;48.106;11.548;2022-12-24T08:07:24;9.70;99.90
29813;DHT22;16707;48.106;11.548;2022-12-24T08:09:54;9.80;99.90
29813;DHT22;16707;48.106;11.548;2022-12-24T08:12:21;9.80;99.90
29813;DHT22;16707;48.106;11.548;2022-12-24T08:14:51;9.80;99.90
29813;DHT22;16707;48.106;11.548;2022-12-24T08:17:19;9.80;99.90
29813;DHT22;16707;48.106;11.548;2022-12-24T08:19:52;9.90;99.90
29813;DHT22;16707;48.106;11.548;2022-12-24T08:22:22;9.90;99.90
29813;DHT22;16707;48.106;11.548;2022-12-24T08:24:48;9.90;99.90
29813;DHT22;16707;48.106;11.548;2022-12-24T08:27:15;10.00;99.90
29813;DHT22;16707;48.106;11.548;2022-12-24T08:29:46;10.00;99.90
29813;DHT22;16707;48.106;11.548;2022-12-24T08:32:13;10.00;99.90
29813;DHT22;16707;48.106;11.548;2022-12-24T08:34:41;10.00;99.90
29813;DHT22;16707;48.106;11.548;2022-12-24T08:37:11;10.00;99.90
29813;DHT22;16707;48.106;11.548;2022-12-24T08:39:38;10.00;99.90
29813;DHT22;16707;48.106;11.548;2022-12-24T08:42:08;10.00;99.90
29813;DHT22;16707;48.106;11.548;2022-12-24T08:44:38;10.10;99.90
29813;DHT22;16707;48.106;11.548;2022-12-24T08:47:11;10.20;99.90
29813;DHT22;16707;48.106;11.548;2022-12-24T08:49:38;10.10;99.90
29813;DHT22;16707;48.106;11.548;2022-12-24T08:52:07;10.10;99.90
29813;DHT22;16707;48.106;11.548;2022-12-24T08:54:34;10.10;99.90
29813;DHT22;16707;48.106;11.548;2022-12-24T08:57:01;10.20;99.90
29813;DHT22;16707;48.106;11.548;2022-12-24T08:59:30;10.20;99.90
29813;DHT22;16707;48.106;11.548;2022-12-24T09:01:57;10.30;99.90
29813;DHT22;16707;48.106;11.548;2022-12-24T09:04:24;10.20;99.90
29813;DHT22;16707;48.106;11.548;2022-12-24T09:06:51;10.20;99.90
29813;DHT22;16707;48.106;11.548;2022-12-24T09:09:22;10.30;99.90
29813;DHT22;16707;48.106;11.548;2022-12-24T09:11:55;10.30;99.90
29813;DHT22;16707;48.106;11.548;2022-12-24T09:14:22;10.30;99.90
29813;DHT22;16707;48.106;11.548;2022-12-24T09:16:52;10.40;99.90
29813;DHT22;16707;48.106;11.548;2022-12-24T09:19:19;10.30;99.90
29813;DHT22;16707;48.106;11.548;2022-12-24T09:21:46;10.40;99.90
29813;DHT22;16707;48.106;11.548;2022-12-24T09:24:13;10.40;99.90
29813;DHT22;16707;48.106;11.548;2022-12-24T09:26:44;10.50;99.90
29813;DHT22;16707;48.106;11.548;2022-12-24T09:29:13;10.50;99.90
29813;DHT22;16707;48.106;11.548;2022-12-24T09:31:41;10.60;99.90
29813;DHT22;16707;48.106;11.548;2022-12-24T09:34:08;10.70;99.90
29813;DHT22;16707;48.106;11.548;2022-12-24T09:36:35;10.60;99.90
29813;DHT22;16707;48.106;11.548;2022-12-24T09:39:02;10.60;99.90
29813;DHT22;16707;48.106;11.548;2022-12-24T09:41:40;10.60;99.90
29813;DHT22;16707;48.106;11.548;2022-12-24T09:44:23;10.60;99.90
29813;DHT22;16707;48.106;11.548;2022-12-24T09:46:54;10.60;99.90
29813;DHT22;16707;48.106;11.548;2022-12-24T09:49:24;10.60;99.90
29813;DHT22;16707;48.106;11.548;2022-12-24T09:52:01;10.50;99.90
29813;DHT22;16707;48.106;11.548;2022-12-24T09:54:33;10.60;99.90
29813;DHT22;16707;48.106;11.548;2022-12-24T09:57:05;10.60;99.90
29813;DHT22;16707;48.106;11.548;2022-12-24T09:59:41;10.60;99.90
29813;DHT22;16707;48.106;11.548;2022-12-24T10:02:12;10.60;99.90
29813;DHT22;16707;48.106;11.548;2022-12-24T10:04:40;10.60;99.90
29813;DHT22;16707;48.106;11.548;2022-12-24T10:07:20;10.60;99.90
29813;DHT22;16707;48.106;11.548;2022-12-24T10:10:02;10.70;99.90
29813;DHT22;16707;48.106;11.548;2022-12-24T10:12:40;10.70;99.90
29813;DHT22;16707;48.106;11.548;2022-12-24T10:15:23;10.80;99.90
29813;DHT22;16707;48.106;11.548;2022-12-24T10:18:03;10.80;99.90
29813;DHT22;16707;48.106;11.548;2022-12-24T10:20:44;10.70;99.90
29813;DHT22;16707;48.106;11.548;2022-12-24T10:23:19;10.60;99.90
29813;DHT22;16707;48.106;11.548;2022-12-24T10:25:55;10.70;99.90
29813;DHT22;16707;48.106;11.548;2022-12-24T10:28:35;10.70;99.90
29813;DHT22;16707;48.106;11.548;2022-12-24T10:31:06;10.70;99.90
29813;DHT22;16707;48.106;11.548;2022-12-24T10:33:38;10.70;99.90
29813;DHT22;16707;48.106;11.548;2022-12-24T10:36:10;10.70;99.90
29813;DHT22;16707;48.106;11.548;2022-12-24T10:38:39;10.70;99.90
29813;DHT22;16707;48.106;11.548;2022-12-24T10:41:10;10.60;99.90
29813;DHT22;16707;48.106;11.548;2022-12-24T10:43:44;10.60;99.90
29813;DHT22;16707;48.106;11.548;2022-12-24T10:46:23;10.50;99.90
29813;DHT22;16707;48.106;11.548;2022-12-24T10:48:58;10.30;99.90
29813;DHT22;16707;48.106;11.548;2022-12-24T10:51:34;10.20;99.90
29813;DHT22;16707;48.106;11.548;2022-12-24T10:54:20;10.10;99.90
29813;DHT22;16707;48.106;11.548;2022-12-24T10:56:49;10.00;99.90
29813;DHT22;16707;48.106;11.548;2022-12-24T10:59:25;9.90;99.90
29813;DHT22;16707;48.106;11.548;2022-12-24T11:01:55;9.90;99.90
29813;DHT22;16707;48.106;11.548;2022-12-24T11:04:27;10.00;99.90
29813;DHT22;16707;48.106;11.548;2022-12-24T11:06:56;10.10;99.90
29813;DHT22;16707;48.106;11.548;2022-12-24T11:09:25;10.10;99.90
29813;DHT22;16707;48.106;11.548;2022-12-24T11:11:53;10.10;99.90
29813;DHT22;16707;48.106;11.548;2022-12-24T11:14:21;10.20;99.90
29813;DHT22;16707;48.106;11.548;2022-12-24T11:16:52;10.30;99.90
29813;DHT22;16707;48.106;11.548;2022-12-24T11:19:29;10.50;99.90
29813;DHT22;16707;48.106;11.548;2022-12-24T11:21:58;10.50;99.90
29813;DHT22;16707;48.106;11.548;2022-12-24T11:24:28;10.70;99.90
29813;DHT22;16707;48.106;11.548;2022-12-24T11:27:21;10.80;99.90
29813;DHT22;16707;48.106;11.548;2022-12-24T11:29:48;10.80;99.60
29813;DHT22;16707;48.106;11.548;2022-12-24T11:32:19;10.90;99.70
29813;DHT22;16707;48.106;11.548;2022-12-24T11:34:50;11.00;99.40
29813;DHT22;16707;48.106;11.548;2022-12-24T11:37:22;11.00;99.90
29813;DHT22;16707;48.106;11.548;2022-12-24T11:39:52;11.00;98.80
29813;DHT22;16707;48.106;11.548;2022-12-24T11:42:29;11.00;99.20
29813;DHT22;16707;48.106;11.548;2022-12-24T11:45:05;10.90;99.20
29813;DHT22;16707;48.106;11.548;2022-12-24T11:47:44;10.80;99.50
29813;DHT22;16707;48.106;11.548;2022-12-24T11:50:26;10.70;99.90
29813;DHT22;16707;48.106;11.548;2022-12-24T11:52:59;10.60;99.90
29813;DHT22;16707;48.106;11.548;2022-12-24T11:55:36;10.60;99.90
29813;DHT22;16707;48.106;11.548;2022-12-24T11:58:16;10.70;99.90
29813;DHT22;16707;48.106;11.548;2022-12-24T12:00:49;10.70;99.90
29813;DHT22;16707;48.106;11.548;2022-12-24T12:03:28;10.70;99.90
29813;DHT22;16707;48.106;11.548;2022-12-24T12:05:57;10.60;99.90
29813;DHT22;16707;48.106;11.548;2022-12-24T12:08:31;10.50;99.90
29813;DHT22;16707;48.106;11.548;2022-12-24T12:10:59;10.50;99.90
29813;DHT22;16707;48.106;11.548;2022-12-24T12:13:32;10.50;99.90
29813;DHT22;16707;48.106;11.548;2022-12-24T12:16:11;10.40;99.90
29813;DHT22;16707;48.106;11.548;2022-12-24T12:18:53;10.40;99.90
29813;DHT22;16707;48.106;11.548;2022-12-24T12:21:25;10.20;99.90
29813;DHT22;16707;48.106;11.548;2022-12-24T12:23:57;10.20;99.90
29813;DHT22;16707;48.106;11.548;2022-12-24T12:26:27;10.20;99.90
29813;DHT22;16707;48.106;11.548;2022-12-24T12:28:57;10.20;99.90
29813;DHT22;16707;48.106;11.548;2022-12-24T12:31:33;10.20;99.90
29813;DHT22;16707;48.106;11.548;2022-12-24T12:34:24;10.20;99.90
29813;DHT22;16707;48.106;11.548;2022-12-24T12:36:57;10.10;99.90
29813;DHT22;16707;48.106;11.548;2022-12-24T12:39:26;10.10;99.90
29813;DHT22;16707;48.106;11.548;2022-12-24T12:41:57;10.10;99.90
29813;DHT22;16707;48.106;11.548;2022-12-24T12:44:55;10.10;99.90
29813;DHT22;16707;48.106;11.548;2022-12-24T12:47:36;10.20;99.90
29813;DHT22;16707;48.106;11.548;2022-12-24T12:50:27;10.30;99.90
29813;DHT22;16707;48.106;11.548;2022-12-24T12:55:57;10.30;99.90
29813;DHT22;16707;48.106;11.548;2022-12-24T12:58:29;10.30;99.90
29813;DHT22;16707;48.106;11.548;2022-12-24T13:01:11;10.30;99.90
29813;DHT22;16707;48.106;11.548;2022-12-24T13:04:13;10.30;99.90
29813;DHT22;16707;48.106;11.548;2022-12-24T13:07:13;10.20;99.90
29813;DHT22;16707;48.106;11.548;2022-12-24T13:10:10;10.30;99.90
29813;DHT22;16707;48.106;11.548;2022-12-24T13:12:51;10.30;99.90
29813;DHT22;16707;48.106;11.548;2022-12-24T13:15:49;10.30;99.90
29813;DHT22;16707;48.106;11.548;2022-12-24T13:18:41;10.20;99.90
29813;DHT22;16707;48.106;11.548;2022-12-24T13:21:16;10.20;99.90
29813;DHT22;16707;48.106;11.548;2022-12-24T13:23:48;10.20;99.90
29813;DHT22;16707;48.106;11.548;2022-12-24T13:26:15;10.20;99.90
29813;DHT22;16707;48.106;11.548;2022-12-24T13:28:43;10.20;99.90
29813;DHT22;16707;48.106;11.548;2022-12-24T13:31:26;10.20;99.90
29813;DHT22;16707;48.106;11.548;2022-12-24T13:34:05;10.30;99.90
29813;DHT22;16707;48.106;11.548;2022-12-24T13:37:14;10.30;99.90
29813;DHT22;16707;48.106;11.548;2022-12-24T13:40:21;10.20;99.90
29813;DHT22;16707;48.106;11.548;2022-12-24T13:43:06;10.10;99.90
29813;DHT22;16707;48.106;11.548;2022-12-24T13:45:45;10.10;99.90
29813;DHT22;16707;48.106;11.548;2022-12-24T13:48:21;10.00;99.90
29813;DHT22;16707;48.106;11.548;2022-12-24T13:50:52;9.90;99.90
29813;DHT22;16707;48.106;11.548;2022-12-24T13:53:22;9.90;99.90
29813;DHT22;16707;48.106;11.548;2022-12-24T13:55:55;9.80;99.90
29813;DHT22;16707;48.106;11.548;2022-12-24T13:58:28;9.90;99.90
29813;DHT22;16707;48.106;11.548;2022-12-24T14:00:58;10.00;99.90
29813;DHT22;16707;48.106;11.548;2022-12-24T14:03:29;10.10;99.90
29813;DHT22;16707;48.106;11.548;2022-12-24T14:05:59;10.00;99.90
29813;DHT22;16707;48.106;11.548;2022-12-24T14:08:40;10.00;99.90
29813;DHT22;16707;48.106;11.548;2022-12-24T14:11:12;10.00;99.90
29813;DHT22;16707;48.106;11.548;2022-12-24T14:14:10;9.90;99.90
29813;DHT22;16707;48.106;11.548;2022-12-24T14:16:43;9.80;99.90
29813;DHT22;16707;48.106;11.548;2022-12-24T14:19:13;9.80;99.90
29813;DHT22;16707;48.106;11.548;2022-12-24T14:21:44;9.70;99.90
29813;DHT22;16707;48.106;11.548;2022-12-24T14:24:27;9.70;99.90
29813;DHT22;16707;48.106;11.548;2022-12-24T14:27:05;9.70;99.90
29813;DHT22;16707;48.106;11.548;2022-12-24T14:29:36;9.70;99.90
29813;DHT22;16707;48.106;11.548;2022-12-24T14:32:13;9.60;99.90
29813;DHT22;16707;48.106;11.548;2022-12-24T14:34:56;9.50;99.90
29813;DHT22;16707;48.106;11.548;2022-12-24T14:37:31;9.50;99.90
29813;DHT22;16707;48.106;11.548;2022-12-24T14:40:02;9.30;99.90
29813;DHT22;16707;48.106;11.548;2022-12-24T14:42:39;9.30;99.90
29813;DHT22;16707;48.106;11.548;2022-12-24T14:45:17;9.10;99.90
29813;DHT22;16707;48.106;11.548;2022-12-24T14:47:54;9.00;99.90
29813;DHT22;16707;48.106;11.548;2022-12-24T14:50:54;9.00;99.90
29813;DHT22;16707;48.106;11.548;2022-12-24T14:53:34;9.00;99.90
29813;DHT22;16707;48.106;11.548;2022-12-24T14:56:13;8.90;99.90
29813;DHT22;16707;48.106;11.548;2022-12-24T14:58:45;8.70;99.90
29813;DHT22;16707;48.106;11.548;2022-12-24T15:01:20;8.70;99.90
29813;DHT22;16707;48.106;11.548;2022-12-24T15:03:59;8.60;99.90
29813;DHT22;16707;48.106;11.548;2022-12-24T15:06:28;8.50;99.90
29813;DHT22;16707;48.106;11.548;2022-12-24T15:09:00;8.40;99.90
29813;DHT22;16707;48.106;11.548;2022-12-24T15:11:37;8.40;99.90
29813;DHT22;16707;48.106;11.548;2022-12-24T15:14:05;8.30;99.90
29813;DHT22;16707;48.106;11.548;2022-12-24T15:16:36;8.30;99.90
29813;DHT22;16707;48.106;11.548;2022-12-24T15:19:12;8.30;99.90
29813;DHT22;16707;48.106;11.548;2022-12-24T15:21:51;8.30;99.90
29813;DHT22;16707;48.106;11.548;2022-12-24T15:24:26;8.20;99.90
29813;DHT22;16707;48.106;11.548;2022-12-24T15:26:54;8.10;99.90
29813;DHT22;16707;48.106;11.548;2022-12-24T15:29:24;8.10;99.90
29813;DHT22;16707;48.106;11.548;2022-12-24T15:31:55;8.10;99.90
29813;DHT22;16707;48.106;11.548;2022-12-24T15:34:27;8.10;99.90
29813;DHT22;16707;48.106;11.548;2022-12-24T15:37:03;8.00;99.90
29813;DHT22;16707;48.106;11.548;2022-12-24T15:39:33;8.10;99.90
29813;DHT22;16707;48.106;11.548;2022-12-24T15:42:00;8.10;99.90
29813;DHT22;16707;48.106;11.548;2022-12-24T15:44:48;8.10;99.90
29813;DHT22;16707;48.106;11.548;2022-12-24T15:47:24;8.10;99.90
29813;DHT22;16707;48.106;11.548;2022-12-24T15:49:52;8.20;99.90
29813;DHT22;16707;48.106;11.548;2022-12-24T15:52:28;8.20;99.90
29813;DHT22;16707;48.106;11.548;2022-12-24T15:54:56;8.20;99.90
29813;DHT22;16707;48.106;11.548;2022-12-24T15:57:25;8.30;99.90
29813;DHT22;16707;48.106;11.548;2022-12-24T15:59:57;8.30;99.90